PWSweather.com
Personal Weather Stations
Station Observations
KNCCHINA3
Red Tractor Trail, China Grove, NC 28023

Red Tractor TrailChina Grove, NC 28023

Lat: 35.59751, Lon: -80.60201

Elevation: 800

Station Type: Oregon Scientific WMR 968

http://www.joesweathergarage.com

High Low Average
Temperature 79.5°F26.4°C 53.7°F12.1°C 67.1°F19.5°C
Dew Point 68.6°F20.3°C 51.9°F11.1°C 63.9°F17.7°C
Winds 16.6 mph 26.7 kmh 2.8 mph 4.5 kmh 7.0 mph S11.3 kmh S
Wind Gusts 33.6 mph54.1 kmh 5.0 mph8.0 kmh 13.0 mph20.9 kmh
Humidity 98% 67% 90%
Pressure 29.97 in1014.9 mb 29.59 in1002.0 mb -
Precipitation 0.88 in22.4 mm - -
Hour Temp Dew Point Humidity Winds Wind Gusts Pressure Precip Precip Rate Daily Precip Total
12:00 AM 65.6°F18.7°C 60.3°F15.7°C 83% 5.9 mph S9.5 kmh S 8.0 mph12.9 kmh 29.97 in1014.9 mb 0.00 in0.0 mm 0.00 in0.0 mm 0.00 in0.0 mm
12:05 AM 65.6°F18.7°C 60.3°F15.7°C 83% 6.2 mph S10.0 kmh S 8.0 mph12.9 kmh 29.97 in1014.9 mb 0.00 in0.0 mm 0.00 in0.0 mm 0.00 in0.0 mm
12:10 AM 65.5°F18.6°C 60.5°F15.8°C 84% 4.6 mph S7.4 kmh S 8.0 mph12.9 kmh 29.94 in1013.9 mb 0.00 in0.0 mm 0.00 in0.0 mm 0.00 in0.0 mm
12:15 AM 65.5°F18.6°C 60.9°F16.1°C 85% 5.1 mph S8.2 kmh S 7.2 mph11.6 kmh 29.94 in1013.9 mb 0.00 in0.0 mm 0.00 in0.0 mm 0.00 in0.0 mm
12:20 AM 65.3°F18.5°C 61.0°F16.1°C 86% 5.2 mph S8.4 kmh S 7.2 mph11.6 kmh 29.94 in1013.9 mb 0.00 in0.0 mm 0.00 in0.0 mm 0.00 in0.0 mm
12:25 AM 65.3°F18.5°C 61.0°F16.1°C 86% 5.6 mph S9.0 kmh S 7.2 mph11.6 kmh 29.97 in1014.9 mb 0.00 in0.0 mm 0.00 in0.0 mm 0.00 in0.0 mm
12:31 AM 65.1°F18.4°C 61.4°F16.3°C 88% 4.8 mph SSE7.7 kmh SSE 8.0 mph12.9 kmh 29.97 in1014.9 mb 0.00 in0.0 mm 0.00 in0.0 mm 0.00 in0.0 mm
12:36 AM 64.9°F18.3°C 61.5°F16.4°C 89% 3.9 mph S6.3 kmh S 7.6 mph12.2 kmh 29.97 in1014.9 mb 0.00 in0.0 mm 0.00 in0.0 mm 0.00 in0.0 mm
12:41 AM 65.1°F18.4°C 62.0°F16.7°C 90% 6.6 mph S10.6 kmh S 8.6 mph13.8 kmh 29.97 in1014.9 mb 0.00 in0.0 mm 0.00 in0.0 mm 0.00 in0.0 mm
12:46 AM 65.1°F18.4°C 62.3°F16.8°C 91% 5.7 mph S9.2 kmh S 8.6 mph13.8 kmh 29.97 in1014.9 mb 0.00 in0.0 mm 0.00 in0.0 mm 0.00 in0.0 mm
12:52 AM 64.9°F18.3°C 62.1°F16.7°C 91% 5.4 mph S8.7 kmh S 9.4 mph15.1 kmh 29.97 in1014.9 mb 0.00 in0.0 mm 0.00 in0.0 mm 0.00 in0.0 mm
12:56 AM 64.9°F18.3°C 62.5°F16.9°C 92% 4.9 mph S7.9 kmh S 9.4 mph15.1 kmh 29.97 in1014.9 mb 0.00 in0.0 mm 0.00 in0.0 mm 0.00 in0.0 mm
01:02 AM 64.7°F18.2°C 62.3°F16.8°C 92% 4.9 mph SSE7.9 kmh SSE 9.8 mph15.8 kmh 29.97 in1014.9 mb 0.00 in0.0 mm 0.00 in0.0 mm 0.00 in0.0 mm
01:07 AM 64.7°F18.2°C 62.6°F17.0°C 93% 6.8 mph S10.9 kmh S 10.8 mph17.4 kmh 29.97 in1014.9 mb 0.00 in0.0 mm 0.00 in0.0 mm 0.00 in0.0 mm
01:14 AM 64.9°F18.3°C 63.1°F17.3°C 94% 5.6 mph S9.0 kmh S 10.8 mph17.4 kmh 29.97 in1014.9 mb 0.00 in0.0 mm 0.00 in0.0 mm 0.00 in0.0 mm
01:19 AM 65.1°F18.4°C 63.6°F17.6°C 95% 6.5 mph S10.5 kmh S 13.0 mph20.9 kmh 29.97 in1014.9 mb 0.00 in0.0 mm 0.00 in0.0 mm 0.00 in0.0 mm
01:24 AM 65.1°F18.4°C 63.6°F17.6°C 95% 7.8 mph S12.6 kmh S 13.0 mph20.9 kmh 29.97 in1014.9 mb 0.00 in0.0 mm 0.00 in0.0 mm 0.00 in0.0 mm
01:29 AM 65.1°F18.4°C 63.6°F17.6°C 95% 7.7 mph S12.4 kmh S 12.6 mph20.3 kmh 29.97 in1014.9 mb 0.00 in0.0 mm 0.00 in0.0 mm 0.00 in0.0 mm
01:34 AM 65.3°F18.5°C 64.1°F17.8°C 96% 5.4 mph S8.7 kmh S 12.0 mph19.3 kmh 29.97 in1014.9 mb 0.00 in0.0 mm 0.00 in0.0 mm 0.00 in0.0 mm
01:39 AM 65.5°F18.6°C 64.3°F17.9°C 96% 5.7 mph S9.2 kmh S 12.6 mph20.3 kmh 29.97 in1014.9 mb 0.00 in0.0 mm 0.00 in0.0 mm 0.00 in0.0 mm
01:44 AM 65.6°F18.7°C 64.4°F18.0°C 96% 6.5 mph SSW10.5 kmh SSW 12.6 mph20.3 kmh 29.97 in1014.9 mb 0.00 in0.0 mm 0.00 in0.0 mm 0.00 in0.0 mm
01:49 AM 65.6°F18.7°C 64.4°F18.0°C 96% 7.3 mph S11.7 kmh S 13.0 mph20.9 kmh 29.97 in1014.9 mb 0.00 in0.0 mm 0.00 in0.0 mm 0.00 in0.0 mm
01:55 AM 65.6°F18.7°C 64.4°F18.0°C 96% 5.6 mph SSW9.0 kmh SSW 13.0 mph20.9 kmh 29.97 in1014.9 mb 0.00 in0.0 mm 0.00 in0.0 mm 0.00 in0.0 mm
02:00 AM 65.6°F18.7°C 64.4°F18.0°C 96% 5.7 mph SSW9.2 kmh SSW 10.8 mph17.4 kmh 29.97 in1014.9 mb 0.00 in0.0 mm 0.00 in0.0 mm 0.00 in0.0 mm
02:05 AM 65.8°F18.8°C 64.6°F18.1°C 96% 7.5 mph S12.1 kmh S 17.0 mph27.4 kmh 29.97 in1014.9 mb 0.00 in0.0 mm 0.00 in0.0 mm 0.00 in0.0 mm
02:10 AM 65.8°F18.8°C 64.6°F18.1°C 96% 7.2 mph S11.6 kmh S 17.0 mph27.4 kmh 29.97 in1014.9 mb 0.00 in0.0 mm 0.00 in0.0 mm 0.00 in0.0 mm
02:15 AM 65.8°F18.8°C 64.3°F17.9°C 95% 4.9 mph S7.9 kmh S 11.6 mph18.7 kmh 29.97 in1014.9 mb 0.00 in0.0 mm 0.00 in0.0 mm 0.00 in0.0 mm
02:20 AM 65.8°F18.8°C 64.6°F18.1°C 96% 7.0 mph S11.3 kmh S 9.4 mph15.1 kmh 29.97 in1014.9 mb 0.00 in0.0 mm 0.00 in0.0 mm 0.00 in0.0 mm
02:26 AM 65.8°F18.8°C 64.3°F17.9°C 95% 7.8 mph S12.6 kmh S 10.8 mph17.4 kmh 29.97 in1014.9 mb 0.00 in0.0 mm 0.00 in0.0 mm 0.00 in0.0 mm
02:32 AM 65.8°F18.8°C 64.3°F17.9°C 95% 6.2 mph S10.0 kmh S 10.8 mph17.4 kmh 29.97 in1014.9 mb 0.00 in0.0 mm 0.00 in0.0 mm 0.00 in0.0 mm
02:38 AM 66.0°F18.9°C 64.5°F18.1°C 95% 5.9 mph S9.5 kmh S 11.6 mph18.7 kmh 29.97 in1014.9 mb 0.00 in0.0 mm 0.00 in0.0 mm 0.00 in0.0 mm
02:43 AM 65.8°F18.8°C 64.3°F17.9°C 95% 5.4 mph S8.7 kmh S 11.6 mph18.7 kmh 29.97 in1014.9 mb 0.00 in0.0 mm 0.00 in0.0 mm 0.00 in0.0 mm
02:48 AM 66.0°F18.9°C 64.5°F18.1°C 95% 8.2 mph S13.2 kmh S 11.2 mph18.0 kmh 29.97 in1014.9 mb 0.00 in0.0 mm 0.00 in0.0 mm 0.00 in0.0 mm
02:53 AM 65.8°F18.8°C 64.3°F17.9°C 95% 4.5 mph S7.2 kmh S 11.2 mph18.0 kmh 29.97 in1014.9 mb 0.00 in0.0 mm 0.00 in0.0 mm 0.00 in0.0 mm
02:58 AM 65.8°F18.8°C 64.3°F17.9°C 95% 5.2 mph S8.4 kmh S 11.6 mph18.7 kmh 29.97 in1014.9 mb 0.00 in0.0 mm 0.00 in0.0 mm 0.00 in0.0 mm
03:03 AM 65.8°F18.8°C 64.3°F17.9°C 95% 5.2 mph S8.4 kmh S 11.6 mph18.7 kmh 29.97 in1014.9 mb 0.00 in0.0 mm 0.00 in0.0 mm 0.00 in0.0 mm
03:09 AM 65.8°F18.8°C 64.3°F17.9°C 95% 6.1 mph S9.8 kmh S 8.0 mph12.9 kmh 29.97 in1014.9 mb 0.00 in0.0 mm 0.00 in0.0 mm 0.00 in0.0 mm
03:14 AM 65.8°F18.8°C 64.3°F17.9°C 95% 6.3 mph S10.1 kmh S 9.8 mph15.8 kmh 29.97 in1014.9 mb 0.00 in0.0 mm 0.00 in0.0 mm 0.00 in0.0 mm
03:19 AM 65.6°F18.7°C 64.1°F17.8°C 95% 3.7 mph S6.0 kmh S 9.8 mph15.8 kmh 29.97 in1014.9 mb 0.00 in0.0 mm 0.00 in0.0 mm 0.00 in0.0 mm
03:24 AM 65.6°F18.7°C 64.1°F17.8°C 95% 4.3 mph S6.9 kmh S 6.8 mph10.9 kmh 29.97 in1014.9 mb 0.00 in0.0 mm 0.00 in0.0 mm 0.00 in0.0 mm
03:29 AM 65.5°F18.6°C 64.3°F17.9°C 96% 3.6 mph S5.8 kmh S 6.8 mph10.9 kmh 29.97 in1014.9 mb 0.00 in0.0 mm 0.00 in0.0 mm 0.00 in0.0 mm
03:34 AM 65.5°F18.6°C 64.3°F17.9°C 96% 5.5 mph S8.9 kmh S 8.0 mph12.9 kmh 29.97 in1014.9 mb 0.00 in0.0 mm 0.00 in0.0 mm 0.00 in0.0 mm
03:39 AM 65.3°F18.5°C 64.1°F17.8°C 96% 4.4 mph S7.1 kmh S 8.0 mph12.9 kmh 29.94 in1013.9 mb 0.00 in0.0 mm 0.00 in0.0 mm 0.00 in0.0 mm
03:44 AM 65.3°F18.5°C 64.1°F17.8°C 96% 5.1 mph S8.2 kmh S 7.6 mph12.2 kmh 29.94 in1013.9 mb 0.00 in0.0 mm 0.00 in0.0 mm 0.00 in0.0 mm
03:49 AM 65.3°F18.5°C 64.1°F17.8°C 96% 3.7 mph S6.0 kmh S 7.6 mph12.2 kmh 29.94 in1013.9 mb 0.00 in0.0 mm 0.00 in0.0 mm 0.00 in0.0 mm
03:54 AM 65.1°F18.4°C 63.9°F17.7°C 96% 4.6 mph S7.4 kmh S 7.6 mph12.2 kmh 29.94 in1013.9 mb 0.00 in0.0 mm 0.00 in0.0 mm 0.00 in0.0 mm
03:59 AM 65.1°F18.4°C 64.2°F17.9°C 97% 3.9 mph S6.3 kmh S 7.6 mph12.2 kmh 29.94 in1013.9 mb 0.00 in0.0 mm 0.00 in0.0 mm 0.00 in0.0 mm
04:04 AM 65.3°F18.5°C 64.4°F18.0°C 97% 5.5 mph S8.9 kmh S 9.4 mph15.1 kmh 29.94 in1013.9 mb 0.00 in0.0 mm 0.00 in0.0 mm 0.00 in0.0 mm
04:09 AM 65.3°F18.5°C 64.4°F18.0°C 97% 4.4 mph S7.1 kmh S 9.4 mph15.1 kmh 29.94 in1013.9 mb 0.00 in0.0 mm 0.00 in0.0 mm 0.00 in0.0 mm
04:14 AM 65.3°F18.5°C 64.4°F18.0°C 97% 7.5 mph S12.1 kmh S 11.2 mph18.0 kmh 29.94 in1013.9 mb 0.00 in0.0 mm 0.00 in0.0 mm 0.00 in0.0 mm
04:22 AM 65.3°F18.5°C 64.4°F18.0°C 97% 5.5 mph SSE8.9 kmh SSE 11.2 mph18.0 kmh 29.94 in1013.9 mb 0.00 in0.0 mm 0.00 in0.0 mm 0.00 in0.0 mm
04:27 AM 65.3°F18.5°C 64.4°F18.0°C 97% 4.2 mph S6.8 kmh S 8.6 mph13.8 kmh 29.94 in1013.9 mb 0.00 in0.0 mm 0.00 in0.0 mm 0.00 in0.0 mm
04:32 AM 65.3°F18.5°C 64.4°F18.0°C 97% 5.9 mph S9.5 kmh S 8.6 mph13.8 kmh 29.94 in1013.9 mb 0.00 in0.0 mm 0.00 in0.0 mm 0.00 in0.0 mm
04:37 AM 65.3°F18.5°C 64.4°F18.0°C 97% 5.7 mph S9.2 kmh S 8.6 mph13.8 kmh 29.91 in1012.9 mb 0.00 in0.0 mm 0.00 in0.0 mm 0.00 in0.0 mm
04:42 AM 65.1°F18.4°C 64.2°F17.9°C 97% 5.0 mph S8.0 kmh S 6.8 mph10.9 kmh 29.91 in1012.9 mb 0.00 in0.0 mm 0.00 in0.0 mm 0.00 in0.0 mm
04:47 AM 64.9°F18.3°C 64.3°F17.9°C 98% 5.3 mph S8.5 kmh S 8.6 mph13.8 kmh 29.91 in1012.9 mb 0.00 in0.0 mm 0.00 in0.0 mm 0.00 in0.0 mm
04:53 AM 64.9°F18.3°C 64.0°F17.8°C 97% 4.0 mph SSE6.4 kmh SSE 8.6 mph13.8 kmh 29.91 in1012.9 mb 0.00 in0.0 mm 0.00 in0.0 mm 0.00 in0.0 mm
04:58 AM 64.7°F18.2°C 64.1°F17.8°C 98% 5.4 mph S8.7 kmh S 6.8 mph10.9 kmh 29.91 in1012.9 mb 0.00 in0.0 mm 0.00 in0.0 mm 0.00 in0.0 mm
05:03 AM 64.7°F18.2°C 64.1°F17.8°C 98% 4.8 mph S7.7 kmh S 6.8 mph10.9 kmh 29.91 in1012.9 mb 0.00 in0.0 mm 0.00 in0.0 mm 0.00 in0.0 mm
05:08 AM 64.6°F18.1°C 64.0°F17.8°C 98% 4.0 mph SSE6.4 kmh SSE 5.8 mph9.3 kmh 29.91 in1012.9 mb 0.00 in0.0 mm 0.00 in0.0 mm 0.00 in0.0 mm
05:13 AM 64.6°F18.1°C 64.0°F17.8°C 98% 4.5 mph S7.2 kmh S 6.8 mph10.9 kmh 29.91 in1012.9 mb 0.00 in0.0 mm 0.00 in0.0 mm 0.00 in0.0 mm
05:18 AM 64.4°F18.0°C 63.8°F17.7°C 98% 4.5 mph SSE7.2 kmh SSE 6.8 mph10.9 kmh 29.91 in1012.9 mb 0.00 in0.0 mm 0.00 in0.0 mm 0.00 in0.0 mm
05:24 AM 64.6°F18.1°C 64.0°F17.8°C 98% 3.6 mph S5.8 kmh S 6.2 mph10.0 kmh 29.88 in1011.9 mb 0.00 in0.0 mm 0.00 in0.0 mm 0.00 in0.0 mm
05:29 AM 64.6°F18.1°C 64.0°F17.8°C 98% 3.8 mph S6.1 kmh S 5.8 mph9.3 kmh 29.88 in1011.9 mb 0.00 in0.0 mm 0.00 in0.0 mm 0.00 in0.0 mm
05:37 AM 64.7°F18.2°C 64.1°F17.8°C 98% 6.1 mph SSE9.8 kmh SSE 9.8 mph15.8 kmh 29.91 in1012.9 mb 0.00 in0.0 mm 0.00 in0.0 mm 0.00 in0.0 mm
05:42 AM 64.7°F18.2°C 64.1°F17.8°C 98% 4.2 mph SSW6.8 kmh SSW 9.8 mph15.8 kmh 29.91 in1012.9 mb 0.00 in0.0 mm 0.00 in0.0 mm 0.00 in0.0 mm
05:47 AM 64.9°F18.3°C 64.3°F17.9°C 98% 4.1 mph S6.6 kmh S 6.8 mph10.9 kmh 29.91 in1012.9 mb 0.00 in0.0 mm 0.00 in0.0 mm 0.00 in0.0 mm
05:52 AM 65.1°F18.4°C 64.5°F18.1°C 98% 3.6 mph S5.8 kmh S 11.2 mph18.0 kmh 29.91 in1012.9 mb 0.00 in0.0 mm 0.00 in0.0 mm 0.00 in0.0 mm
05:59 AM 65.3°F18.5°C 64.7°F18.2°C 98% 6.2 mph S10.0 kmh S 10.8 mph17.4 kmh 29.91 in1012.9 mb 0.00 in0.0 mm 0.00 in0.0 mm 0.00 in0.0 mm
06:04 AM 65.5°F18.6°C 64.9°F18.3°C 98% 6.8 mph S10.9 kmh S 10.8 mph17.4 kmh 29.91 in1012.9 mb 0.00 in0.0 mm 0.00 in0.0 mm 0.00 in0.0 mm
06:10 AM 65.5°F18.6°C 64.9°F18.3°C 98% 5.5 mph S8.9 kmh S 10.8 mph17.4 kmh 29.91 in1012.9 mb 0.00 in0.0 mm 0.00 in0.0 mm 0.00 in0.0 mm
06:15 AM 65.6°F18.7°C 65.0°F18.3°C 98% 6.4 mph S10.3 kmh S 8.6 mph13.8 kmh 29.91 in1012.9 mb 0.00 in0.0 mm 0.00 in0.0 mm 0.00 in0.0 mm
06:21 AM 65.6°F18.7°C 65.0°F18.3°C 98% 5.3 mph S8.5 kmh S 8.0 mph12.9 kmh 29.88 in1011.9 mb 0.00 in0.0 mm 0.00 in0.0 mm 0.00 in0.0 mm
06:26 AM 65.8°F18.8°C 65.2°F18.4°C 98% 6.2 mph S10.0 kmh S 7.6 mph12.2 kmh 29.88 in1011.9 mb 0.00 in0.0 mm 0.00 in0.0 mm 0.00 in0.0 mm
06:31 AM 66.0°F18.9°C 65.4°F18.6°C 98% 4.4 mph S7.1 kmh S 7.6 mph12.2 kmh 29.88 in1011.9 mb 0.00 in0.0 mm 0.00 in0.0 mm 0.00 in0.0 mm
06:36 AM 66.0°F18.9°C 65.1°F18.4°C 97% 5.8 mph S9.3 kmh S 12.6 mph20.3 kmh 29.91 in1012.9 mb 0.00 in0.0 mm 0.00 in0.0 mm 0.00 in0.0 mm
06:41 AM 66.2°F19.0°C 65.3°F18.5°C 97% 5.3 mph S8.5 kmh S 12.6 mph20.3 kmh 29.91 in1012.9 mb 0.00 in0.0 mm 0.00 in0.0 mm 0.00 in0.0 mm
06:46 AM 66.4°F19.1°C 65.5°F18.6°C 97% 7.9 mph S12.7 kmh S 9.8 mph15.8 kmh 29.91 in1012.9 mb 0.00 in0.0 mm 0.00 in0.0 mm 0.00 in0.0 mm
06:51 AM 66.4°F19.1°C 65.5°F18.6°C 97% 5.8 mph S9.3 kmh S 9.8 mph15.8 kmh 29.88 in1011.9 mb 0.00 in0.0 mm 0.00 in0.0 mm 0.00 in0.0 mm
06:56 AM 66.5°F19.2°C 65.6°F18.7°C 97% 7.1 mph S11.4 kmh S 14.8 mph23.8 kmh 29.88 in1011.9 mb 0.00 in0.0 mm 0.00 in0.0 mm 0.00 in0.0 mm
07:01 AM 66.7°F19.3°C 65.5°F18.6°C 96% 4.7 mph S7.6 kmh S 14.8 mph23.8 kmh 29.88 in1011.9 mb 0.00 in0.0 mm 0.00 in0.0 mm 0.00 in0.0 mm
07:06 AM 66.9°F19.4°C 65.7°F18.7°C 96% 7.0 mph SSW11.3 kmh SSW 12.6 mph20.3 kmh 29.88 in1011.9 mb 0.00 in0.0 mm 0.00 in0.0 mm 0.00 in0.0 mm
07:13 AM 67.1°F19.5°C 65.8°F18.8°C 96% 4.8 mph SSW7.7 kmh SSW 12.6 mph20.3 kmh 29.88 in1011.9 mb 0.00 in0.0 mm 0.00 in0.0 mm 0.00 in0.0 mm
07:18 AM 67.1°F19.5°C 65.8°F18.8°C 96% 5.6 mph S9.0 kmh S 11.2 mph18.0 kmh 29.88 in1011.9 mb 0.00 in0.0 mm 0.00 in0.0 mm 0.00 in0.0 mm
07:24 AM 67.3°F19.6°C 65.7°F18.7°C 95% 6.6 mph S10.6 kmh S 15.2 mph24.5 kmh 29.88 in1011.9 mb 0.00 in0.0 mm 0.00 in0.0 mm 0.00 in0.0 mm
07:29 AM 67.6°F19.8°C 66.0°F18.9°C 95% 6.7 mph S10.8 kmh S 15.2 mph24.5 kmh 29.88 in1011.9 mb 0.00 in0.0 mm 0.00 in0.0 mm 0.00 in0.0 mm
07:34 AM 67.8°F19.9°C 66.2°F19.0°C 95% 5.2 mph S8.4 kmh S 10.8 mph17.4 kmh 29.88 in1011.9 mb 0.00 in0.0 mm 0.00 in0.0 mm 0.00 in0.0 mm
07:39 AM 68.0°F20.0°C 66.1°F18.9°C 94% 6.4 mph S10.3 kmh S 10.8 mph17.4 kmh 29.88 in1011.9 mb 0.00 in0.0 mm 0.00 in0.0 mm 0.00 in0.0 mm
07:44 AM 68.3°F20.2°C 66.4°F19.1°C 94% 6.2 mph SSE10.0 kmh SSE 11.6 mph18.7 kmh 29.88 in1011.9 mb 0.00 in0.0 mm 0.00 in0.0 mm 0.00 in0.0 mm
07:49 AM 68.7°F20.4°C 66.5°F19.2°C 93% 6.7 mph S10.8 kmh S 11.6 mph18.7 kmh 29.88 in1011.9 mb 0.00 in0.0 mm 0.00 in0.0 mm 0.00 in0.0 mm
07:54 AM 68.9°F20.5°C 66.7°F19.3°C 93% 7.1 mph SSE11.4 kmh SSE 12.0 mph19.3 kmh 29.91 in1012.9 mb 0.00 in0.0 mm 0.00 in0.0 mm 0.00 in0.0 mm
07:59 AM 69.2°F20.7°C 66.7°F19.3°C 92% 6.3 mph S10.1 kmh S 14.8 mph23.8 kmh 29.91 in1012.9 mb 0.00 in0.0 mm 0.00 in0.0 mm 0.00 in0.0 mm
08:04 AM 69.1°F20.6°C 66.6°F19.2°C 92% 6.4 mph S10.3 kmh S 14.8 mph23.8 kmh 29.91 in1012.9 mb 0.00 in0.0 mm 0.00 in0.0 mm 0.00 in0.0 mm
08:09 AM 69.1°F20.6°C 66.6°F19.2°C 92% 8.5 mph S13.7 kmh S 13.0 mph20.9 kmh 29.91 in1012.9 mb 0.00 in0.0 mm 0.00 in0.0 mm 0.00 in0.0 mm
08:14 AM 69.4°F20.8°C 66.9°F19.4°C 92% 5.9 mph S9.5 kmh S 13.0 mph20.9 kmh 29.91 in1012.9 mb 0.00 in0.0 mm 0.00 in0.0 mm 0.00 in0.0 mm
08:19 AM 69.4°F20.8°C 66.6°F19.2°C 91% 6.0 mph S9.7 kmh S 17.0 mph27.4 kmh 29.91 in1012.9 mb 0.00 in0.0 mm 0.00 in0.0 mm 0.00 in0.0 mm
08:25 AM 69.6°F20.9°C 66.8°F19.3°C 91% 5.9 mph S9.5 kmh S 17.0 mph27.4 kmh 29.91 in1012.9 mb 0.00 in0.0 mm 0.00 in0.0 mm 0.00 in0.0 mm
08:30 AM 69.8°F21.0°C 67.0°F19.4°C 91% 6.0 mph S9.7 kmh S 8.0 mph12.9 kmh 29.91 in1012.9 mb 0.00 in0.0 mm 0.00 in0.0 mm 0.00 in0.0 mm
08:35 AM 70.0°F21.1°C 66.9°F19.4°C 90% 6.3 mph S10.1 kmh S 8.0 mph12.9 kmh 29.91 in1012.9 mb 0.00 in0.0 mm 0.00 in0.0 mm 0.00 in0.0 mm
08:40 AM 70.0°F21.1°C 66.9°F19.4°C 90% 10.3 mph SSW16.6 kmh SSW 14.8 mph23.8 kmh 29.91 in1012.9 mb 0.00 in0.0 mm 0.00 in0.0 mm 0.00 in0.0 mm
08:45 AM 70.0°F21.1°C 66.9°F19.4°C 90% 7.9 mph S12.7 kmh S 14.8 mph23.8 kmh 29.91 in1012.9 mb 0.00 in0.0 mm 0.00 in0.0 mm 0.00 in0.0 mm
08:50 AM 70.3°F21.3°C 66.8°F19.3°C 89% 8.7 mph S14.0 kmh S 17.4 mph28.0 kmh 29.91 in1012.9 mb 0.00 in0.0 mm 0.00 in0.0 mm 0.00 in0.0 mm
08:56 AM 71.0°F21.7°C 67.5°F19.7°C 89% 7.7 mph S12.4 kmh S 17.4 mph28.0 kmh 29.88 in1011.9 mb 0.00 in0.0 mm 0.00 in0.0 mm 0.00 in0.0 mm
09:02 AM 71.4°F21.9°C 67.6°F19.8°C 88% 8.9 mph SE14.3 kmh SE 13.0 mph20.9 kmh 29.88 in1011.9 mb 0.00 in0.0 mm 0.00 in0.0 mm 0.00 in0.0 mm
09:08 AM 71.6°F22.0°C 67.5°F19.7°C 87% 8.4 mph S13.5 kmh S 15.6 mph25.1 kmh 29.88 in1011.9 mb 0.00 in0.0 mm 0.00 in0.0 mm 0.00 in0.0 mm
09:13 AM 71.8°F22.1°C 67.4°F19.7°C 86% 10.5 mph S16.9 kmh S 15.6 mph25.1 kmh 29.88 in1011.9 mb 0.00 in0.0 mm 0.00 in0.0 mm 0.00 in0.0 mm
09:20 AM 71.8°F22.1°C 67.4°F19.7°C 86% 9.0 mph S14.5 kmh S 15.6 mph25.1 kmh 29.88 in1011.9 mb 0.00 in0.0 mm 0.00 in0.0 mm 0.00 in0.0 mm
09:25 AM 71.8°F22.1°C 67.4°F19.7°C 86% 9.5 mph S15.3 kmh S 15.6 mph25.1 kmh 29.91 in1012.9 mb 0.00 in0.0 mm 0.00 in0.0 mm 0.00 in0.0 mm
09:30 AM 72.3°F22.4°C 67.5°F19.7°C 85% 8.8 mph S14.2 kmh S 15.2 mph24.5 kmh 29.91 in1012.9 mb 0.00 in0.0 mm 0.00 in0.0 mm 0.00 in0.0 mm
09:35 AM 72.3°F22.4°C 67.2°F19.6°C 84% 11.9 mph S19.2 kmh S 19.2 mph30.9 kmh 29.91 in1012.9 mb 0.00 in0.0 mm 0.00 in0.0 mm 0.00 in0.0 mm
09:40 AM 73.4°F23.0°C 67.9°F19.9°C 83% 9.4 mph S15.1 kmh S 19.2 mph30.9 kmh 29.88 in1011.9 mb 0.00 in0.0 mm 0.00 in0.0 mm 0.00 in0.0 mm
09:45 AM 73.9°F23.3°C 67.7°F19.8°C 81% 8.7 mph S14.0 kmh S 15.2 mph24.5 kmh 29.88 in1011.9 mb 0.00 in0.0 mm 0.00 in0.0 mm 0.00 in0.0 mm
09:50 AM 74.6°F23.7°C 68.1°F20.1°C 80% 6.8 mph S10.9 kmh S 22.0 mph35.4 kmh 29.88 in1011.9 mb 0.00 in0.0 mm 0.00 in0.0 mm 0.00 in0.0 mm
09:55 AM 75.4°F24.1°C 68.1°F20.1°C 78% 7.5 mph S12.1 kmh S 22.0 mph35.4 kmh 29.88 in1011.9 mb 0.00 in0.0 mm 0.00 in0.0 mm 0.00 in0.0 mm
10:00 AM 75.5°F24.2°C 67.9°F19.9°C 77% 10.4 mph S16.7 kmh S 18.4 mph29.6 kmh 29.88 in1011.9 mb 0.00 in0.0 mm 0.00 in0.0 mm 0.00 in0.0 mm
10:05 AM 77.0°F25.0°C 67.8°F19.9°C 73% 9.1 mph S14.6 kmh S 18.4 mph29.6 kmh 29.88 in1011.9 mb 0.00 in0.0 mm 0.00 in0.0 mm 0.00 in0.0 mm
10:10 AM 76.8°F24.9°C 67.2°F19.6°C 72% 8.7 mph S14.0 kmh S 26.4 mph42.5 kmh 29.88 in1011.9 mb 0.00 in0.0 mm 0.00 in0.0 mm 0.00 in0.0 mm
10:15 AM 77.0°F25.0°C 66.6°F19.2°C 70% 10.6 mph S17.1 kmh S 26.4 mph42.5 kmh 29.88 in1011.9 mb 0.00 in0.0 mm 0.00 in0.0 mm 0.00 in0.0 mm
10:20 AM 77.0°F25.0°C 66.2°F19.0°C 69% 10.0 mph SSE16.1 kmh SSE 21.0 mph33.8 kmh 29.88 in1011.9 mb 0.00 in0.0 mm 0.00 in0.0 mm 0.00 in0.0 mm
10:25 AM 76.1°F24.5°C 65.7°F18.7°C 70% 6.6 mph S10.6 kmh S 20.2 mph32.5 kmh 29.88 in1011.9 mb 0.00 in0.0 mm 0.00 in0.0 mm 0.00 in0.0 mm
10:30 AM 75.7°F24.3°C 66.2°F19.0°C 72% 6.7 mph S10.8 kmh S 20.2 mph32.5 kmh 29.88 in1011.9 mb 0.00 in0.0 mm 0.00 in0.0 mm 0.00 in0.0 mm
10:35 AM 75.5°F24.2°C 66.0°F18.9°C 72% 10.1 mph S16.3 kmh S 17.0 mph27.4 kmh 29.88 in1011.9 mb 0.00 in0.0 mm 0.00 in0.0 mm 0.00 in0.0 mm
10:40 AM 76.1°F24.5°C 66.5°F19.2°C 72% 8.2 mph SE13.2 kmh SE 16.2 mph26.1 kmh 29.85 in1010.8 mb 0.00 in0.0 mm 0.00 in0.0 mm 0.00 in0.0 mm
10:45 AM 76.4°F24.7°C 66.4°F19.1°C 71% 9.0 mph S14.5 kmh S 17.0 mph27.4 kmh 29.85 in1010.8 mb 0.00 in0.0 mm 0.00 in0.0 mm 0.00 in0.0 mm
10:50 AM 76.4°F24.7°C 66.4°F19.1°C 71% 14.1 mph S22.7 kmh S 30.8 mph49.6 kmh 29.85 in1010.8 mb 0.00 in0.0 mm 0.00 in0.0 mm 0.00 in0.0 mm
10:55 AM 76.3°F24.6°C 66.3°F19.1°C 71% 13.0 mph S20.9 kmh S 30.8 mph49.6 kmh 29.85 in1010.8 mb 0.00 in0.0 mm 0.00 in0.0 mm 0.00 in0.0 mm
11:01 AM 76.6°F24.8°C 66.6°F19.2°C 71% 8.9 mph S14.3 kmh S 17.4 mph28.0 kmh 29.85 in1010.8 mb 0.00 in0.0 mm 0.00 in0.0 mm 0.00 in0.0 mm
11:06 AM 76.6°F24.8°C 67.0°F19.4°C 72% 9.9 mph S15.9 kmh S 17.4 mph28.0 kmh 29.85 in1010.8 mb 0.00 in0.0 mm 0.00 in0.0 mm 0.00 in0.0 mm
11:13 AM 76.1°F24.5°C 66.9°F19.4°C 73% 8.2 mph S13.2 kmh S 17.0 mph27.4 kmh 29.85 in1010.8 mb 0.00 in0.0 mm 0.00 in0.0 mm 0.00 in0.0 mm
11:18 AM 76.3°F24.6°C 67.1°F19.5°C 73% 6.4 mph S10.3 kmh S 13.0 mph20.9 kmh 29.85 in1010.8 mb 0.00 in0.0 mm 0.00 in0.0 mm 0.00 in0.0 mm
11:23 AM 76.6°F24.8°C 67.8°F19.9°C 74% 8.3 mph S13.4 kmh S 12.6 mph20.3 kmh 29.88 in1011.9 mb 0.00 in0.0 mm 0.00 in0.0 mm 0.00 in0.0 mm
11:28 AM 76.4°F24.7°C 67.2°F19.6°C 73% 8.1 mph S13.0 kmh S 17.0 mph27.4 kmh 29.88 in1011.9 mb 0.00 in0.0 mm 0.00 in0.0 mm 0.00 in0.0 mm
11:33 AM 76.8°F24.9°C 67.2°F19.6°C 72% 13.5 mph S21.7 kmh S 24.6 mph39.6 kmh 29.88 in1011.9 mb 0.00 in0.0 mm 0.00 in0.0 mm 0.00 in0.0 mm
11:38 AM 76.6°F24.8°C 67.4°F19.7°C 73% 9.8 mph S15.8 kmh S 24.6 mph39.6 kmh 29.85 in1010.8 mb 0.00 in0.0 mm 0.00 in0.0 mm 0.00 in0.0 mm
11:45 AM 77.0°F25.0°C 67.4°F19.7°C 72% 10.3 mph S16.6 kmh S 15.6 mph25.1 kmh 29.85 in1010.8 mb 0.00 in0.0 mm 0.00 in0.0 mm 0.00 in0.0 mm
11:50 AM 76.8°F24.9°C 66.8°F19.3°C 71% 12.6 mph SSE20.3 kmh SSE 24.6 mph39.6 kmh 29.85 in1010.8 mb 0.00 in0.0 mm 0.00 in0.0 mm 0.00 in0.0 mm
11:55 AM 76.4°F24.7°C 66.8°F19.3°C 72% 11.0 mph S17.7 kmh S 24.6 mph39.6 kmh 29.83 in1010.2 mb 0.00 in0.0 mm 0.00 in0.0 mm 0.00 in0.0 mm
12:00 PM 76.3°F24.6°C 66.7°F19.3°C 72% 13.6 mph S21.9 kmh S 22.8 mph36.7 kmh 29.83 in1010.2 mb 0.00 in0.0 mm 0.00 in0.0 mm 0.00 in0.0 mm
12:05 PM 76.4°F24.7°C 67.2°F19.6°C 73% 8.5 mph S13.7 kmh S 22.8 mph36.7 kmh 29.83 in1010.2 mb 0.00 in0.0 mm 0.00 in0.0 mm 0.00 in0.0 mm
12:10 PM 76.4°F24.7°C 67.6°F19.8°C 74% 9.6 mph S15.4 kmh S 17.0 mph27.4 kmh 29.80 in1009.1 mb 0.00 in0.0 mm 0.00 in0.0 mm 0.00 in0.0 mm
12:15 PM 76.6°F24.8°C 67.4°F19.7°C 73% 6.2 mph S10.0 kmh S 17.0 mph27.4 kmh 29.80 in1009.1 mb 0.00 in0.0 mm 0.00 in0.0 mm 0.00 in0.0 mm
12:20 PM 77.3°F25.2°C 67.7°F19.8°C 72% 13.9 mph SSE22.4 kmh SSE 26.0 mph41.8 kmh 29.80 in1009.1 mb 0.00 in0.0 mm 0.00 in0.0 mm 0.00 in0.0 mm
12:25 PM 78.4°F25.8°C 68.0°F20.0°C 70% 15.5 mph S24.9 kmh S 26.0 mph41.8 kmh 29.77 in1008.1 mb 0.00 in0.0 mm 0.00 in0.0 mm 0.00 in0.0 mm
12:30 PM 79.5°F26.4°C 68.6°F20.3°C 69% 10.6 mph SSW17.1 kmh SSW 25.0 mph40.2 kmh 29.77 in1008.1 mb 0.00 in0.0 mm 0.00 in0.0 mm 0.00 in0.0 mm
12:35 PM 79.1°F26.2°C 67.4°F19.7°C 67% 14.1 mph S22.7 kmh S 25.0 mph40.2 kmh 29.77 in1008.1 mb 0.00 in0.0 mm 0.00 in0.0 mm 0.00 in0.0 mm
12:40 PM 78.8°F26.0°C 67.5°F19.7°C 68% 10.5 mph SSW16.9 kmh SSW 21.4 mph34.4 kmh 29.80 in1009.1 mb 0.00 in0.0 mm 0.00 in0.0 mm 0.00 in0.0 mm
12:45 PM 78.2°F25.7°C 67.3°F19.6°C 69% 9.5 mph S15.3 kmh S 20.2 mph32.5 kmh 29.80 in1009.1 mb 0.00 in0.0 mm 0.00 in0.0 mm 0.00 in0.0 mm
12:50 PM 78.1°F25.6°C 67.3°F19.6°C 69% 10.6 mph S17.1 kmh S 28.2 mph45.4 kmh 29.80 in1009.1 mb 0.00 in0.0 mm 0.00 in0.0 mm 0.00 in0.0 mm
12:55 PM 77.9°F25.5°C 67.1°F19.5°C 69% 13.0 mph S20.9 kmh S 28.2 mph45.4 kmh 29.80 in1009.1 mb 0.00 in0.0 mm 0.00 in0.0 mm 0.00 in0.0 mm
01:00 PM 77.5°F25.3°C 67.1°F19.5°C 70% 10.7 mph SSW17.2 kmh SSW 26.4 mph42.5 kmh 29.80 in1009.1 mb 0.00 in0.0 mm 0.00 in0.0 mm 0.00 in0.0 mm
01:07 PM 77.9°F25.5°C 67.5°F19.7°C 70% 13.2 mph S21.2 kmh S 18.4 mph29.6 kmh 29.77 in1008.1 mb 0.00 in0.0 mm 0.00 in0.0 mm 0.00 in0.0 mm
01:12 PM 78.2°F25.7°C 67.3°F19.6°C 69% 13.7 mph S22.0 kmh S 25.0 mph40.2 kmh 29.77 in1008.1 mb 0.00 in0.0 mm 0.00 in0.0 mm 0.00 in0.0 mm
01:17 PM 77.9°F25.5°C 67.1°F19.5°C 69% 11.2 mph S18.0 kmh S 25.0 mph40.2 kmh 29.77 in1008.1 mb 0.00 in0.0 mm 0.00 in0.0 mm 0.00 in0.0 mm
01:22 PM 77.9°F25.5°C 66.6°F19.2°C 68% 13.2 mph S21.2 kmh S 24.6 mph39.6 kmh 29.74 in1007.1 mb 0.00 in0.0 mm 0.00 in0.0 mm 0.00 in0.0 mm
01:27 PM 77.5°F25.3°C 66.3°F19.1°C 68% 11.8 mph S19.0 kmh S 24.6 mph39.6 kmh 29.74 in1007.1 mb 0.00 in0.0 mm 0.00 in0.0 mm 0.00 in0.0 mm
01:32 PM 77.3°F25.2°C 66.1°F18.9°C 68% 13.4 mph S21.6 kmh S 32.6 mph52.5 kmh 29.74 in1007.1 mb 0.00 in0.0 mm 0.00 in0.0 mm 0.00 in0.0 mm
01:37 PM 77.3°F25.2°C 66.1°F18.9°C 68% 13.5 mph S21.7 kmh S 32.6 mph52.5 kmh 29.74 in1007.1 mb 0.00 in0.0 mm 0.00 in0.0 mm 0.00 in0.0 mm
01:42 PM 77.2°F25.1°C 65.6°F18.7°C 67% 16.6 mph S26.7 kmh S 33.6 mph54.1 kmh 29.74 in1007.1 mb 0.00 in0.0 mm 0.00 in0.0 mm 0.00 in0.0 mm
01:48 PM 77.2°F25.1°C 66.0°F18.9°C 68% 12.3 mph SSW19.8 kmh SSW 33.6 mph54.1 kmh 29.74 in1007.1 mb 0.00 in0.0 mm 0.00 in0.0 mm 0.00 in0.0 mm
01:53 PM 77.2°F25.1°C 66.4°F19.1°C 69% 8.2 mph S13.2 kmh S 19.2 mph30.9 kmh 29.74 in1007.1 mb 0.00 in0.0 mm 0.00 in0.0 mm 0.00 in0.0 mm
01:58 PM 77.0°F25.0°C 66.2°F19.0°C 69% 9.7 mph SSW15.6 kmh SSW 14.8 mph23.8 kmh 29.74 in1007.1 mb 0.00 in0.0 mm 0.00 in0.0 mm 0.00 in0.0 mm
02:03 PM 76.8°F24.9°C 66.0°F18.9°C 69% 13.3 mph S21.4 kmh S 24.6 mph39.6 kmh 29.74 in1007.1 mb 0.00 in0.0 mm 0.00 in0.0 mm 0.00 in0.0 mm
02:11 PM 76.4°F24.7°C 66.0°F18.9°C 70% 8.8 mph S14.2 kmh S 20.6 mph33.2 kmh 29.74 in1007.1 mb 0.00 in0.0 mm 0.00 in0.0 mm 0.00 in0.0 mm
02:16 PM 76.3°F24.6°C 65.9°F18.8°C 70% 11.1 mph S17.9 kmh S 20.6 mph33.2 kmh 29.74 in1007.1 mb 0.00 in0.0 mm 0.00 in0.0 mm 0.00 in0.0 mm
02:22 PM 76.1°F24.5°C 65.7°F18.7°C 70% 14.0 mph S22.5 kmh S 21.0 mph33.8 kmh 29.71 in1006.1 mb 0.00 in0.0 mm 0.00 in0.0 mm 0.00 in0.0 mm
02:27 PM 75.9°F24.4°C 65.6°F18.7°C 70% 11.1 mph S17.9 kmh S 21.0 mph33.8 kmh 29.71 in1006.1 mb 0.00 in0.0 mm 0.00 in0.0 mm 0.00 in0.0 mm
02:33 PM 75.7°F24.3°C 65.4°F18.6°C 70% 9.3 mph S15.0 kmh S 17.4 mph28.0 kmh 29.71 in1006.1 mb 0.00 in0.0 mm 0.00 in0.0 mm 0.00 in0.0 mm
02:38 PM 75.4°F24.1°C 65.9°F18.8°C 72% 12.6 mph S20.3 kmh S 17.4 mph28.0 kmh 29.74 in1007.1 mb 0.00 in0.0 mm 0.00 in0.0 mm 0.00 in0.0 mm
02:44 PM 74.1°F23.4°C 66.1°F18.9°C 76% 10.8 mph S17.4 kmh S 17.4 mph28.0 kmh 29.74 in1007.1 mb 0.00 in0.0 mm 0.00 in0.0 mm 0.00 in0.0 mm
02:49 PM 73.4°F23.0°C 66.5°F19.2°C 79% 7.6 mph WSW12.2 kmh WSW 18.8 mph30.3 kmh 29.74 in1007.1 mb 0.00 in0.0 mm 0.00 in0.0 mm 0.00 in0.0 mm
02:54 PM 71.4°F21.9°C 64.6°F18.1°C 79% 10.0 mph SW16.1 kmh SW 18.8 mph30.3 kmh 29.74 in1007.1 mb 0.00 in0.0 mm 0.00 in0.0 mm 0.00 in0.0 mm
02:59 PM 67.3°F19.6°C 61.6°F16.4°C 82% 7.9 mph WSW12.7 kmh WSW 20.2 mph32.5 kmh 29.74 in1007.1 mb 0.08 in2.0 mm 0.96 in24.4 mm 0.09 in2.3 mm
03:05 PM 64.6°F18.1°C 61.9°F16.6°C 91% 7.5 mph W12.1 kmh W 15.2 mph24.5 kmh 29.74 in1007.1 mb 0.13 in3.3 mm 0.06 in1.5 mm 0.13 in3.3 mm
03:10 PM 63.7°F17.6°C 62.5°F16.9°C 96% 12.7 mph WSW20.4 kmh WSW 17.4 mph28.0 kmh 29.74 in1007.1 mb 0.13 in3.3 mm 0.00 in0.0 mm 0.13 in3.3 mm
03:16 PM 62.9°F17.2°C 62.3°F16.8°C 98% 7.6 mph S12.2 kmh S 17.4 mph28.0 kmh 29.74 in1007.1 mb 0.29 in7.4 mm 1.60 in40.6 mm 0.26 in6.6 mm
03:21 PM 62.6°F17.0°C 62.0°F16.7°C 98% 5.0 mph S8.0 kmh S 10.8 mph17.4 kmh 29.71 in1006.1 mb 0.33 in8.4 mm 0.48 in12.2 mm 0.34 in8.6 mm
03:26 PM 62.6°F17.0°C 62.0°F16.7°C 98% 6.9 mph WSW11.1 kmh WSW 9.8 mph15.8 kmh 29.71 in1006.1 mb 0.37 in9.4 mm 0.48 in12.2 mm 0.38 in9.7 mm
03:31 PM 62.6°F17.0°C 62.0°F16.7°C 98% 5.3 mph WSW8.5 kmh WSW 8.0 mph12.9 kmh 29.71 in1006.1 mb 0.37 in9.4 mm 0.00 in0.0 mm 0.38 in9.7 mm
03:37 PM 62.6°F17.0°C 62.0°F16.7°C 98% 4.4 mph SSW7.1 kmh SSW 7.6 mph12.2 kmh 29.74 in1007.1 mb 0.37 in9.4 mm 0.00 in0.0 mm 0.38 in9.7 mm
03:41 PM 62.6°F17.0°C 62.0°F16.7°C 98% 3.4 mph S5.5 kmh S 7.2 mph11.6 kmh 29.74 in1007.1 mb 0.37 in9.4 mm 0.00 in0.0 mm 0.38 in9.7 mm
03:47 PM 62.6°F17.0°C 62.0°F16.7°C 98% 2.8 mph SSE4.5 kmh SSE 5.8 mph9.3 kmh 29.74 in1007.1 mb 0.42 in10.7 mm 0.50 in12.7 mm 0.42 in10.7 mm
03:52 PM 62.8°F17.1°C 62.2°F16.8°C 98% 3.7 mph S6.0 kmh S 5.4 mph8.7 kmh 29.71 in1006.1 mb 0.00 in0.0 mm 0.00 in0.0 mm 0.42 in10.7 mm
03:57 PM 62.8°F17.1°C 62.2°F16.8°C 98% 4.3 mph SW6.9 kmh SW 6.2 mph10.0 kmh 29.71 in1006.1 mb 0.00 in0.0 mm 0.00 in0.0 mm 0.42 in10.7 mm
04:02 PM 63.1°F17.3°C 62.5°F16.9°C 98% 3.5 mph SSW5.6 kmh SSW 5.8 mph9.3 kmh 29.71 in1006.1 mb 0.00 in0.0 mm 0.00 in0.0 mm 0.42 in10.7 mm
04:07 PM 63.7°F17.6°C 63.1°F17.3°C 98% 3.2 mph SW5.1 kmh SW 5.8 mph9.3 kmh 29.71 in1006.1 mb 0.00 in0.0 mm 0.00 in0.0 mm 0.42 in10.7 mm
04:12 PM 64.0°F17.8°C 63.4°F17.4°C 98% 3.7 mph S6.0 kmh S 6.8 mph10.9 kmh 29.71 in1006.1 mb 0.00 in0.0 mm 0.00 in0.0 mm 0.42 in10.7 mm
04:18 PM 64.0°F17.8°C 63.4°F17.4°C 98% 4.5 mph S7.2 kmh S 8.0 mph12.9 kmh 29.71 in1006.1 mb 0.00 in0.0 mm 0.00 in0.0 mm 0.42 in10.7 mm
04:23 PM 64.0°F17.8°C 63.4°F17.4°C 98% 3.0 mph SSE4.8 kmh SSE 8.0 mph12.9 kmh 29.71 in1006.1 mb 0.00 in0.0 mm 0.00 in0.0 mm 0.42 in10.7 mm
04:28 PM 64.2°F17.9°C 63.6°F17.6°C 98% 5.1 mph SW8.2 kmh SW 7.6 mph12.2 kmh 29.71 in1006.1 mb 0.00 in0.0 mm 0.00 in0.0 mm 0.42 in10.7 mm
04:33 PM 64.2°F17.9°C 63.6°F17.6°C 98% 3.5 mph S5.6 kmh S 8.0 mph12.9 kmh 29.71 in1006.1 mb 0.00 in0.0 mm 0.00 in0.0 mm 0.42 in10.7 mm
04:38 PM 64.2°F17.9°C 63.6°F17.6°C 98% 4.7 mph SSW7.6 kmh SSW 8.0 mph12.9 kmh 29.71 in1006.1 mb 0.00 in0.0 mm 0.00 in0.0 mm 0.42 in10.7 mm
04:43 PM 64.2°F17.9°C 63.6°F17.6°C 98% 4.2 mph SSE6.8 kmh SSE 8.0 mph12.9 kmh 29.71 in1006.1 mb 0.00 in0.0 mm 0.00 in0.0 mm 0.42 in10.7 mm
04:48 PM 64.2°F17.9°C 63.6°F17.6°C 98% 5.7 mph S9.2 kmh S 8.0 mph12.9 kmh 29.71 in1006.1 mb 0.00 in0.0 mm 0.00 in0.0 mm 0.42 in10.7 mm
04:53 PM 64.2°F17.9°C 63.6°F17.6°C 98% 4.4 mph S7.1 kmh S 8.0 mph12.9 kmh 29.71 in1006.1 mb 0.00 in0.0 mm 0.00 in0.0 mm 0.42 in10.7 mm
04:58 PM 64.2°F17.9°C 63.6°F17.6°C 98% 5.0 mph S8.0 kmh S 8.0 mph12.9 kmh 29.71 in1006.1 mb 0.04 in1.0 mm 0.48 in12.2 mm 0.46 in11.7 mm
05:03 PM 64.2°F17.9°C 63.6°F17.6°C 98% 5.2 mph S8.4 kmh S 7.6 mph12.2 kmh 29.71 in1006.1 mb 0.04 in1.0 mm 0.00 in0.0 mm 0.46 in11.7 mm
05:09 PM 64.2°F17.9°C 63.6°F17.6°C 98% 3.5 mph SE5.6 kmh SE 7.2 mph11.6 kmh 29.65 in1004.1 mb 0.04 in1.0 mm 0.00 in0.0 mm 0.46 in11.7 mm
05:14 PM 64.0°F17.8°C 63.4°F17.4°C 98% 2.8 mph S4.5 kmh S 5.0 mph8.0 kmh 29.65 in1004.1 mb 0.04 in1.0 mm 0.00 in0.0 mm 0.46 in11.7 mm
05:19 PM 64.0°F17.8°C 63.4°F17.4°C 98% 3.8 mph S6.1 kmh S 5.0 mph8.0 kmh 29.65 in1004.1 mb 0.04 in1.0 mm 0.00 in0.0 mm 0.46 in11.7 mm
05:24 PM 64.0°F17.8°C 63.4°F17.4°C 98% 4.5 mph S7.2 kmh S 6.2 mph10.0 kmh 29.68 in1005.1 mb 0.04 in1.0 mm 0.00 in0.0 mm 0.46 in11.7 mm
05:29 PM 64.0°F17.8°C 63.4°F17.4°C 98% 3.2 mph SW5.1 kmh SW 6.2 mph10.0 kmh 29.68 in1005.1 mb 0.04 in1.0 mm 0.00 in0.0 mm 0.46 in11.7 mm
05:34 PM 64.0°F17.8°C 63.4°F17.4°C 98% 4.1 mph S6.6 kmh S 7.2 mph11.6 kmh 29.68 in1005.1 mb 0.04 in1.0 mm 0.00 in0.0 mm 0.46 in11.7 mm
05:42 PM 64.2°F17.9°C 63.6°F17.6°C 98% 3.4 mph SSW5.5 kmh SSW 7.2 mph11.6 kmh 29.68 in1005.1 mb 0.04 in1.0 mm 0.00 in0.0 mm 0.46 in11.7 mm
05:47 PM 64.2°F17.9°C 63.6°F17.6°C 98% 3.6 mph ESE5.8 kmh ESE 6.2 mph10.0 kmh 29.68 in1005.1 mb 0.04 in1.0 mm 0.00 in0.0 mm 0.46 in11.7 mm
05:52 PM 64.0°F17.8°C 63.4°F17.4°C 98% 3.5 mph SSE5.6 kmh SSE 5.0 mph8.0 kmh 29.68 in1005.1 mb 0.00 in0.0 mm 0.00 in0.0 mm 0.46 in11.7 mm
05:57 PM 64.0°F17.8°C 63.4°F17.4°C 98% 2.9 mph S4.7 kmh S 5.4 mph8.7 kmh 29.68 in1005.1 mb 0.00 in0.0 mm 0.00 in0.0 mm 0.46 in11.7 mm
06:04 PM 64.0°F17.8°C 63.4°F17.4°C 98% 4.4 mph S7.1 kmh S 7.2 mph11.6 kmh 29.68 in1005.1 mb 0.00 in0.0 mm 0.00 in0.0 mm 0.46 in11.7 mm
06:09 PM 63.8°F17.7°C 63.2°F17.3°C 98% 3.4 mph S5.5 kmh S 8.0 mph12.9 kmh 29.68 in1005.1 mb 0.00 in0.0 mm 0.00 in0.0 mm 0.46 in11.7 mm
06:14 PM 63.8°F17.7°C 63.2°F17.3°C 98% 4.8 mph SSE7.7 kmh SSE 8.0 mph12.9 kmh 29.68 in1005.1 mb 0.00 in0.0 mm 0.00 in0.0 mm 0.46 in11.7 mm
06:19 PM 63.7°F17.6°C 63.1°F17.3°C 98% 4.4 mph SSE7.1 kmh SSE 9.8 mph15.8 kmh 29.68 in1005.1 mb 0.00 in0.0 mm 0.00 in0.0 mm 0.46 in11.7 mm
06:24 PM 63.7°F17.6°C 63.1°F17.3°C 98% 4.7 mph SSE7.6 kmh SSE 9.8 mph15.8 kmh 29.65 in1004.1 mb 0.00 in0.0 mm 0.00 in0.0 mm 0.46 in11.7 mm
06:29 PM 63.5°F17.5°C 62.9°F17.2°C 98% 4.3 mph S6.9 kmh S 8.0 mph12.9 kmh 29.65 in1004.1 mb 0.00 in0.0 mm 0.00 in0.0 mm 0.46 in11.7 mm
06:34 PM 63.5°F17.5°C 62.9°F17.2°C 98% 5.3 mph SSE8.5 kmh SSE 8.6 mph13.8 kmh 29.65 in1004.1 mb 0.00 in0.0 mm 0.00 in0.0 mm 0.46 in11.7 mm
06:39 PM 63.3°F17.4°C 62.7°F17.1°C 98% 4.7 mph ESE7.6 kmh ESE 8.6 mph13.8 kmh 29.65 in1004.1 mb 0.04 in1.0 mm 0.48 in12.2 mm 0.50 in12.7 mm
06:44 PM 63.3°F17.4°C 62.7°F17.1°C 98% 5.5 mph SE8.9 kmh SE 7.6 mph12.2 kmh 29.65 in1004.1 mb 0.04 in1.0 mm 0.00 in0.0 mm 0.50 in12.7 mm
06:49 PM 63.3°F17.4°C 62.7°F17.1°C 98% 3.5 mph SSE5.6 kmh SSE 7.6 mph12.2 kmh 29.65 in1004.1 mb 0.04 in1.0 mm 0.00 in0.0 mm 0.50 in12.7 mm
06:55 PM 63.1°F17.3°C 62.5°F16.9°C 98% 3.1 mph S5.0 kmh S 5.8 mph9.3 kmh 29.65 in1004.1 mb 0.00 in0.0 mm 0.00 in0.0 mm 0.50 in12.7 mm
07:00 PM 63.1°F17.3°C 62.5°F16.9°C 98% 3.7 mph S6.0 kmh S 8.0 mph12.9 kmh 29.65 in1004.1 mb 0.00 in0.0 mm 0.00 in0.0 mm 0.50 in12.7 mm
07:06 PM 62.9°F17.2°C 62.3°F16.8°C 98% 3.8 mph SSE6.1 kmh SSE 8.0 mph12.9 kmh 29.65 in1004.1 mb 0.04 in1.0 mm 0.40 in10.2 mm 0.54 in13.7 mm
07:11 PM 62.9°F17.2°C 62.3°F16.8°C 98% 3.4 mph SSE5.5 kmh SSE 7.2 mph11.6 kmh 29.65 in1004.1 mb 0.04 in1.0 mm 0.00 in0.0 mm 0.54 in13.7 mm
07:17 PM 62.9°F17.2°C 62.3°F16.8°C 98% 5.7 mph SSE9.2 kmh SSE 8.6 mph13.8 kmh 29.65 in1004.1 mb 0.04 in1.0 mm 0.00 in0.0 mm 0.54 in13.7 mm
07:22 PM 62.9°F17.2°C 62.3°F16.8°C 98% 3.7 mph S6.0 kmh S 8.6 mph13.8 kmh 29.65 in1004.1 mb 0.04 in1.0 mm 0.00 in0.0 mm 0.54 in13.7 mm
07:27 PM 62.9°F17.2°C 62.3°F16.8°C 98% 3.8 mph SE6.1 kmh SE 6.8 mph10.9 kmh 29.65 in1004.1 mb 0.08 in2.0 mm 0.48 in12.2 mm 0.59 in15.0 mm
07:32 PM 62.9°F17.2°C 62.3°F16.8°C 98% 4.8 mph SE7.7 kmh SE 6.8 mph10.9 kmh 29.65 in1004.1 mb 0.08 in2.0 mm 0.00 in0.0 mm 0.59 in15.0 mm
07:37 PM 62.9°F17.2°C 62.3°F16.8°C 98% 4.4 mph SE7.1 kmh SE 7.2 mph11.6 kmh 29.65 in1004.1 mb 0.12 in3.0 mm 0.48 in12.2 mm 0.63 in16.0 mm
07:42 PM 62.9°F17.2°C 62.3°F16.8°C 98% 4.5 mph SSE7.2 kmh SSE 7.2 mph11.6 kmh 29.65 in1004.1 mb 0.12 in3.0 mm 0.00 in0.0 mm 0.63 in16.0 mm
07:48 PM 62.9°F17.2°C 62.3°F16.8°C 98% 6.1 mph SSE9.8 kmh SSE 7.6 mph12.2 kmh 29.65 in1004.1 mb 0.17 in4.3 mm 0.50 in12.7 mm 0.67 in17.0 mm
07:53 PM 62.9°F17.2°C 62.3°F16.8°C 98% 4.4 mph SSE7.1 kmh SSE 7.6 mph12.2 kmh 29.62 in1003.0 mb 0.00 in0.0 mm 0.00 in0.0 mm 0.67 in17.0 mm
07:59 PM 62.9°F17.2°C 62.3°F16.8°C 98% 5.0 mph S8.0 kmh S 9.4 mph15.1 kmh 29.62 in1003.0 mb 0.04 in1.0 mm 0.40 in10.2 mm 0.71 in18.0 mm
08:04 PM 62.9°F17.2°C 62.3°F16.8°C 98% 4.5 mph SSE7.2 kmh SSE 9.4 mph15.1 kmh 29.62 in1003.0 mb 0.04 in1.0 mm 0.00 in0.0 mm 0.71 in18.0 mm
08:10 PM 62.9°F17.2°C 62.3°F16.8°C 98% 5.6 mph S9.0 kmh S 9.4 mph15.1 kmh 29.59 in1002.0 mb 0.08 in2.0 mm 0.40 in10.2 mm 0.75 in19.1 mm
08:15 PM 63.1°F17.3°C 62.5°F16.9°C 98% 4.5 mph S7.2 kmh S 8.6 mph13.8 kmh 29.59 in1002.0 mb 0.08 in2.0 mm 0.00 in0.0 mm 0.75 in19.1 mm
08:22 PM 63.1°F17.3°C 62.5°F16.9°C 98% 7.3 mph S11.7 kmh S 11.6 mph18.7 kmh 29.65 in1004.1 mb 0.08 in2.0 mm 0.00 in0.0 mm 0.75 in19.1 mm
08:27 PM 63.1°F17.3°C 62.5°F16.9°C 98% 6.4 mph S10.3 kmh S 13.0 mph20.9 kmh 29.65 in1004.1 mb 0.08 in2.0 mm 0.00 in0.0 mm 0.75 in19.1 mm
08:32 PM 63.1°F17.3°C 62.5°F16.9°C 98% 6.0 mph S9.7 kmh S 13.0 mph20.9 kmh 29.65 in1004.1 mb 0.08 in2.0 mm 0.00 in0.0 mm 0.75 in19.1 mm
08:37 PM 63.1°F17.3°C 62.5°F16.9°C 98% 4.7 mph S7.6 kmh S 13.0 mph20.9 kmh 29.59 in1002.0 mb 0.08 in2.0 mm 0.00 in0.0 mm 0.75 in19.1 mm
08:42 PM 63.1°F17.3°C 62.5°F16.9°C 98% 6.7 mph S10.8 kmh S 10.8 mph17.4 kmh 29.59 in1002.0 mb 0.08 in2.0 mm 0.00 in0.0 mm 0.75 in19.1 mm
08:47 PM 63.3°F17.4°C 62.7°F17.1°C 98% 5.9 mph SSW9.5 kmh SSW 10.8 mph17.4 kmh 29.59 in1002.0 mb 0.13 in3.3 mm 0.60 in15.2 mm 0.79 in20.1 mm
08:53 PM 63.3°F17.4°C 62.7°F17.1°C 98% 9.9 mph S15.9 kmh S 15.6 mph25.1 kmh 29.62 in1003.0 mb 0.00 in0.0 mm 0.00 in0.0 mm 0.79 in20.1 mm
08:58 PM 63.3°F17.4°C 62.7°F17.1°C 98% 7.8 mph S12.6 kmh S 15.6 mph25.1 kmh 29.62 in1003.0 mb 0.00 in0.0 mm 0.00 in0.0 mm 0.79 in20.1 mm
09:03 PM 63.1°F17.3°C 62.5°F16.9°C 98% 5.1 mph S8.2 kmh S 11.6 mph18.7 kmh 29.62 in1003.0 mb 0.00 in0.0 mm 0.00 in0.0 mm 0.79 in20.1 mm
09:08 PM 63.1°F17.3°C 62.5°F16.9°C 98% 6.5 mph S10.5 kmh S 13.4 mph21.6 kmh 29.62 in1003.0 mb 0.04 in1.0 mm 0.48 in12.2 mm 0.83 in21.1 mm
09:13 PM 63.1°F17.3°C 62.5°F16.9°C 98% 6.4 mph S10.3 kmh S 13.4 mph21.6 kmh 29.62 in1003.0 mb 0.04 in1.0 mm 0.00 in0.0 mm 0.83 in21.1 mm
09:18 PM 63.1°F17.3°C 62.5°F16.9°C 98% 6.0 mph SSW9.7 kmh SSW 9.8 mph15.8 kmh 29.62 in1003.0 mb 0.04 in1.0 mm 0.00 in0.0 mm 0.83 in21.1 mm
09:23 PM 63.1°F17.3°C 62.5°F16.9°C 98% 5.6 mph S9.0 kmh S 8.0 mph12.9 kmh 29.59 in1002.0 mb 0.04 in1.0 mm 0.00 in0.0 mm 0.83 in21.1 mm
09:28 PM 62.9°F17.2°C 62.3°F16.8°C 98% 5.9 mph SSE9.5 kmh SSE 8.6 mph13.8 kmh 29.59 in1002.0 mb 0.04 in1.0 mm 0.00 in0.0 mm 0.83 in21.1 mm
09:33 PM 62.9°F17.2°C 62.3°F16.8°C 98% 5.6 mph SW9.0 kmh SW 8.6 mph13.8 kmh 29.59 in1002.0 mb 0.04 in1.0 mm 0.00 in0.0 mm 0.83 in21.1 mm
09:38 PM 62.9°F17.2°C 62.3°F16.8°C 98% 6.2 mph SSW10.0 kmh SSW 8.6 mph13.8 kmh 29.59 in1002.0 mb 0.08 in2.0 mm 0.48 in12.2 mm 0.88 in22.4 mm
09:43 PM 62.9°F17.2°C 62.3°F16.8°C 98% 5.2 mph SW8.4 kmh SW 14.4 mph23.2 kmh 29.59 in1002.0 mb 0.08 in2.0 mm 0.00 in0.0 mm 0.88 in22.4 mm
09:48 PM 62.8°F17.1°C 62.2°F16.8°C 98% 7.7 mph S12.4 kmh S 15.2 mph24.5 kmh 29.59 in1002.0 mb 0.08 in2.0 mm 0.00 in0.0 mm 0.88 in22.4 mm
09:53 PM 62.4°F16.9°C 61.8°F16.6°C 98% 7.3 mph SW11.7 kmh SW 15.2 mph24.5 kmh 29.59 in1002.0 mb 0.00 in0.0 mm 0.00 in0.0 mm 0.88 in22.4 mm
09:58 PM 62.2°F16.8°C 61.6°F16.4°C 98% 6.7 mph S10.8 kmh S 11.6 mph18.7 kmh 29.59 in1002.0 mb 0.00 in0.0 mm 0.00 in0.0 mm 0.88 in22.4 mm
10:04 PM 61.9°F16.6°C 61.3°F16.3°C 98% 8.5 mph SW13.7 kmh SW 12.0 mph19.3 kmh 29.59 in1002.0 mb 0.00 in0.0 mm 0.00 in0.0 mm 0.88 in22.4 mm
10:09 PM 61.7°F16.5°C 61.1°F16.2°C 98% 7.1 mph SW11.4 kmh SW 13.0 mph20.9 kmh 29.59 in1002.0 mb 0.00 in0.0 mm 0.00 in0.0 mm 0.88 in22.4 mm
10:14 PM 61.5°F16.4°C 60.9°F16.1°C 98% 5.8 mph SW9.3 kmh SW 13.0 mph20.9 kmh 29.59 in1002.0 mb 0.00 in0.0 mm 0.00 in0.0 mm 0.88 in22.4 mm
10:19 PM 61.1°F16.2°C 60.5°F15.8°C 98% 7.1 mph SSW11.4 kmh SSW 12.6 mph20.3 kmh 29.59 in1002.0 mb 0.00 in0.0 mm 0.00 in0.0 mm 0.88 in22.4 mm
10:24 PM 60.8°F16.0°C 60.2°F15.7°C 98% 6.9 mph SW11.1 kmh SW 20.2 mph32.5 kmh 29.59 in1002.0 mb 0.00 in0.0 mm 0.00 in0.0 mm 0.88 in22.4 mm
10:29 PM 60.2°F15.7°C 59.6°F15.3°C 98% 11.7 mph SW18.8 kmh SW 20.2 mph32.5 kmh 29.59 in1002.0 mb 0.00 in0.0 mm 0.00 in0.0 mm 0.88 in22.4 mm
10:34 PM 59.8°F15.4°C 58.8°F14.9°C 97% 8.6 mph SW13.8 kmh SW 17.4 mph28.0 kmh 29.59 in1002.0 mb 0.00 in0.0 mm 0.00 in0.0 mm 0.88 in22.4 mm
10:39 PM 59.3°F15.2°C 58.6°F14.8°C 98% 7.2 mph SW11.6 kmh SW 12.6 mph20.3 kmh 29.59 in1002.0 mb 0.00 in0.0 mm 0.00 in0.0 mm 0.88 in22.4 mm
10:44 PM 58.7°F14.8°C 58.0°F14.4°C 98% 7.6 mph SW12.2 kmh SW 11.6 mph18.7 kmh 29.59 in1002.0 mb 0.00 in0.0 mm 0.00 in0.0 mm 0.88 in22.4 mm
10:49 PM 58.4°F14.7°C 57.7°F14.3°C 98% 6.6 mph SW10.6 kmh SW 9.8 mph15.8 kmh 29.59 in1002.0 mb 0.00 in0.0 mm 0.00 in0.0 mm 0.88 in22.4 mm
10:55 PM 58.0°F14.4°C 57.3°F14.1°C 98% 3.9 mph SSW6.3 kmh SSW 9.4 mph15.1 kmh 29.59 in1002.0 mb 0.00 in0.0 mm 0.00 in0.0 mm 0.88 in22.4 mm
11:00 PM 57.8°F14.3°C 57.1°F13.9°C 98% 5.5 mph SSW8.9 kmh SSW 8.0 mph12.9 kmh 29.59 in1002.0 mb 0.00 in0.0 mm 0.00 in0.0 mm 0.88 in22.4 mm
11:05 PM 57.8°F14.3°C 57.1°F13.9°C 98% 4.4 mph S7.1 kmh S 8.6 mph13.8 kmh 29.59 in1002.0 mb 0.00 in0.0 mm 0.00 in0.0 mm 0.88 in22.4 mm
11:10 PM 57.5°F14.2°C 56.8°F13.8°C 98% 6.2 mph WSW10.0 kmh WSW 8.6 mph13.8 kmh 29.62 in1003.0 mb 0.00 in0.0 mm 0.00 in0.0 mm 0.88 in22.4 mm
11:15 PM 57.3°F14.1°C 56.3°F13.5°C 97% 6.0 mph WSW9.7 kmh WSW 11.2 mph18.0 kmh 29.62 in1003.0 mb 0.00 in0.0 mm 0.00 in0.0 mm 0.88 in22.4 mm
11:20 PM 56.6°F13.7°C 55.0°F12.8°C 95% 7.0 mph SSW11.3 kmh SSW 11.2 mph18.0 kmh 29.62 in1003.0 mb 0.00 in0.0 mm 0.00 in0.0 mm 0.88 in22.4 mm
11:25 PM 56.0°F13.3°C 53.9°F12.2°C 93% 6.9 mph WSW11.1 kmh WSW 11.2 mph18.0 kmh 29.59 in1002.0 mb 0.00 in0.0 mm 0.00 in0.0 mm 0.88 in22.4 mm
11:30 PM 55.7°F13.2°C 53.0°F11.7°C 91% 7.0 mph SSW11.3 kmh SSW 12.6 mph20.3 kmh 29.59 in1002.0 mb 0.00 in0.0 mm 0.00 in0.0 mm 0.88 in22.4 mm
11:35 PM 54.9°F12.7°C 52.5°F11.4°C 92% 5.5 mph SW8.9 kmh SW 12.6 mph20.3 kmh 29.59 in1002.0 mb 0.00 in0.0 mm 0.00 in0.0 mm 0.88 in22.4 mm
11:40 PM 54.4°F12.4°C 52.3°F11.3°C 93% 7.3 mph WSW11.7 kmh WSW 12.0 mph19.3 kmh 29.59 in1002.0 mb 0.00 in0.0 mm 0.00 in0.0 mm 0.88 in22.4 mm
11:46 PM 54.0°F12.2°C 51.9°F11.1°C 93% 8.4 mph SSW13.5 kmh SSW 12.6 mph20.3 kmh 29.59 in1002.0 mb 0.00 in0.0 mm 0.00 in0.0 mm 0.88 in22.4 mm
11:51 PM 53.9°F12.2°C 52.1°F11.2°C 94% 6.2 mph SSW10.0 kmh SSW 12.6 mph20.3 kmh 29.59 in1002.0 mb 0.00 in0.0 mm 0.00 in0.0 mm 0.88 in22.4 mm
11:58 PM 53.7°F12.1°C 52.2°F11.2°C 95% 6.8 mph SW10.9 kmh SW 17.0 mph27.4 kmh 29.62 in1003.0 mb 0.00 in0.0 mm 0.00 in0.0 mm 0.88 in22.4 mm